Data for 02/19/2010

Time Sea-Level Adjusted Pressure Absolute Pressure Temperature Relative Humidity Dew Point   
(mb) (inHg) (mb) (inHg) (C) (F) (%) (C) (F)
00:05 1018 30.06 847 25.01 -5.7 21.7 81 -8.5 16.7
00:10 1018 30.06 847 25.01 -5.8 21.6 81 -8.6 16.6
00:15 1018 30.06 847 25.01 -5.9 21.4 82 -8.5 16.6
00:20 1018 30.06 847 25.01 -6 21.2 83 -8.5 16.7
00:25 1018 30.06 847 25.01 -6.2 20.9 84 -8.5 16.8
00:30 1018 30.06 847 25.01 -6.3 20.7 85 -8.4 16.9
00:35 1018 30.06 847 25.01 -6.4 20.6 86 -8.3 17.1
00:40 1018 30.06 847 25.01 -6.5 20.3 86 -8.4 16.9
00:45 1018 30.06 847 25.01 -6.6 20.1 86 -8.5 16.6
00:50 1018 30.06 847 25.01 -6.7 20 87 -8.5 16.8
00:55 1018 30.06 847 25.01 -6.7 19.9 87 -8.5 16.7
01:00 1018 30.06 847 25.01 -6.7 19.9 87 -8.5 16.7
01:05 1018 30.06 847 25.01 -6.7 19.9 87 -8.6 16.6
01:10 1018 30.06 847 25.01 -6.6 20 86 -8.7 16.4
01:15 1018 30.06 847 25.01 -6.7 19.9 87 -8.5 16.7
01:20 1018 30.06 847 25.01 -6.7 19.9 89 -8.3 17
01:25 1018 30.06 847 25.01 -6.7 19.9 90 -8.2 17.3
01:30 1017 30.03 847 25.01 -6.7 20 90 -8 17.6
01:35 1017 30.03 847 25.01 -6.7 20 91 -7.9 17.7
01:40 1017 30.03 847 25.01 -6.6 20.1 91 -7.9 17.8
01:45 1017 30.03 847 25.01 -6.5 20.3 91 -7.7 18.1
01:50 1017 30.03 847 25.01 -6.5 20.3 92 -7.7 18.2
01:55 1017 30.03 847 25.01 -6.5 20.4 92 -7.5 18.4
02:00 1017 30.03 847 25.01 -6.4 20.4 92 -7.5 18.4
02:05 1017 30.03 847 25.01 -6.4 20.5 92 -7.4 18.6
02:10 1017 30.03 847 25.01 -6.4 20.6 92 -7.4 18.6
02:15 1017 30.03 847 25.01 -6.4 20.5 92 -7.5 18.4
02:20 1017 30.03 847 25.01 -6.5 20.2 91 -7.7 18.1
02:25 1017 30.03 846 24.98 -6.8 19.8 92 -7.9 17.8
02:30 1017 30.03 846 24.98 -6.8 19.7 92 -7.9 17.7
02:35 1017 30.03 846 24.98 -6.9 19.6 92 -8 17.6
02:40 1017 30.03 846 24.98 -6.9 19.5 92 -8 17.6
02:45 1017 30.03 846 24.98 -7 19.5 92 -8 17.6
02:50 1017 30.03 846 24.98 -7 19.5 93 -7.9 17.7
02:55 1017 30.03 846 24.98 -6.9 19.6 93 -7.9 17.8
03:00 1017 30.03 846 24.98 -6.9 19.6 93 -7.9 17.8
03:05 1017 30.03 846 24.98 -6.8 19.7 92 -7.9 17.8
03:10 1017 30.03 846 24.98 -6.9 19.6 93 -7.8 17.9
03:15 1017 30.03 846 24.98 -6.7 19.9 93 -7.7 18.2
03:20 1017 30.03 846 24.98 -6.6 20.1 92 -7.6 18.3
03:25 1017 30.03 846 24.98 -6.6 20.1 93 -7.6 18.3
03:30 1017 30.03 846 24.98 -6.4 20.4 92 -7.5 18.5
03:35 1017 30.03 846 24.98 -6.3 20.6 92 -7.4 18.6
03:40 1017 30.03 846 24.98 -6.4 20.5 93 -7.4 18.7
03:45 1017 30.03 846 24.98 -6.2 20.8 92 -7.3 18.9
03:50 1017 30.03 846 24.98 -6.2 20.8 92 -7.3 18.9
03:55 1017 30.03 846 24.98 -6.2 20.8 92 -7.3 18.9
04:00 1017 30.03 846 24.98 -6.2 20.8 92 -7.4 18.8
04:05 1017 30.03 846 24.98 -6.3 20.6 92 -7.4 18.7
04:10 1017 30.03 846 24.98 -6.4 20.5 92 -7.5 18.6
04:15 1017 30.03 846 24.98 -6.4 20.5 92 -7.4 18.7
04:20 1017 30.03 846 24.98 -6.3 20.6 92 -7.4 18.7
04:25 1017 30.03 846 24.98 -6.4 20.5 92 -7.5 18.4
04:30 1017 30.03 846 24.98 -6.4 20.4 92 -7.6 18.4
04:35 1017 30.03 846 24.98 -6.4 20.5 92 -7.5 18.4
04:40 1017 30.03 846 24.98 -6.4 20.4 91 -7.7 18.1
04:45 1017 30.03 846 24.98 -6.6 20.2 91 -7.7 18.1
04:50 1017 30.03 846 24.98 -6.6 20.1 91 -7.8 18
04:55 1017 30.03 846 24.98 -6.7 20 91 -7.9 17.8
05:00 1017 30.03 846 24.98 -6.8 19.7 92 -7.9 17.7
05:05 1017 30.03 846 24.98 -6.8 19.8 92 -7.9 17.8
05:10 1017 30.03 846 24.98 -6.7 19.9 92 -7.9 17.9
05:15 1017 30.03 846 24.98 -6.7 19.9 92 -7.8 17.9
05:20 1017 30.03 846 24.98 -6.7 19.9 92 -7.9 17.8
05:25 1017 30.03 846 24.98 -6.8 19.7 91 -8 17.5
05:30 1017 30.03 846 24.98 -7 19.3 90 -8.4 16.9
05:35 1017 30.03 846 24.98 -7.1 19.1 88 -8.9 16
05:40 1017 30.03 846 24.98 -7.2 19.1 86 -9.1 15.6
05:45 1017 30.03 846 24.98 -7.3 18.9 87 -9.1 15.6
05:50 1017 30.03 846 24.98 -7.4 18.8 87 -9.1 15.5
05:55 1017 30.03 846 24.98 -7.4 18.7 87 -9.1 15.6
06:00 1017 30.03 846 24.98 -7.3 18.9 88 -9 15.9
06:05 1017 30.03 846 24.98 -7.2 19.1 88 -8.9 16
06:10 1017 30.03 846 24.98 -7 19.3 87 -8.8 16.1
06:15 1017 30.03 846 24.98 -7 19.5 87 -8.8 16.1
06:20 1017 30.03 846 24.98 -6.9 19.6 87 -8.7 16.3
06:25 1017 30.03 846 24.98 -6.8 19.7 87 -8.6 16.6
06:30 1017 30.03 846 24.98 -6.8 19.8 88 -8.4 16.8
06:35 1016 30 846 24.98 -6.8 19.8 88 -8.4 16.8
06:40 1016 30 846 24.98 -6.8 19.7 90 -8.2 17.2
06:45 1016 30 846 24.98 -6.7 19.9 88 -8.5 16.8
06:50 1016 30 846 24.98 -7.1 19.3 90 -8.4 16.8
06:55 1016 30 846 24.98 -7 19.4 91 -8.2 17.3
07:00 1016 30 846 24.98 -6.9 19.5 92 -8.1 17.5
07:05 1016 30 846 24.98 -7 19.5 93 -8 17.7
07:10 1016 30 846 24.98 -6.9 19.6 93 -7.8 18
07:15 1016 30 846 24.98 -6.8 19.7 93 -7.7 18.1
07:20 1016 30 846 24.98 -6.8 19.8 95 -7.5 18.5
07:25 1016 30 846 24.98 -6.9 19.7 95 -7.5 18.5
07:30 1016 30 846 24.98 -6.8 19.7 96 -7.4 18.7
07:35 1016 30 846 24.98 -6.8 19.8 95 -7.4 18.7
07:40 1016 30 846 24.98 -6.8 19.8 96 -7.3 18.8
07:45 1016 30 846 24.98 -6.7 20 95 -7.3 18.8
07:50 1016 30 846 24.98 -6.7 20 95 -7.4 18.7
07:55 1017 30.03 846 24.98 -6.9 19.5 96 -7.5 18.5
08:00 1017 30.03 846 24.98 -6.8 19.7 95 -7.4 18.6
08:05 1017 30.03 846 24.98 -6.9 19.6 96 -7.5 18.6
08:10 1017 30.03 846 24.98 -6.8 19.8 96 -7.3 18.9
08:15 1017 30.03 846 24.98 -6.5 20.3 96 -7.1 19.3
08:20 1017 30.03 846 24.98 -6.4 20.4 95 -7.2 19.1
08:25 1017 30.03 846 24.98 -6.7 19.9 95 -7.4 18.7
08:30 1017 30.03 846 24.98 -6.7 20 95 -7.3 18.9
08:35 1017 30.03 846 24.98 -6.4 20.4 95 -7.1 19.2
08:40 1017 30.03 846 24.98 -6.2 20.8 94 -7 19.3
08:45 1017 30.03 846 24.98 -6.2 20.8 94 -7.1 19.2
08:50 1017 30.03 846 24.98 -6 21.2 94 -6.9 19.6
08:55 1017 30.03 846 24.98 -5.7 21.8 92 -6.8 19.7
09:00 1017 30.03 846 24.98 -5.5 22.1 90 -6.9 19.5
09:05 1017 30.03 846 24.98 -5.6 21.9 89 -7.1 19.2
09:10 1017 30.03 846 24.98 -5.7 21.7 88 -7.3 18.8
09:15 1017 30.03 846 24.98 -5.5 22.1 88 -7.2 19
09:20 1017 30.03 846 24.98 -5.2 22.6 87 -7.1 19.3
09:25 1017 30.03 846 24.98 -5.1 22.7 87 -7 19.3
09:30 1017 30.03 846 24.98 -5.1 22.9 86 -7.1 19.2
09:35 1017 30.03 846 24.98 -5.6 22 88 -7.3 18.9
09:40 1017 30.03 846 24.98 -5.5 22.1 88 -7.2 19
09:45 1017 30.03 846 24.98 -5.1 22.8 85 -7.2 19.1
09:50 1017 30.03 846 24.98 -4.7 23.5 84 -7.1 19.2
09:55 1017 30.03 846 24.98 -4.2 24.5 81 -7 19.5
10:00 1017 30.03 846 24.98 -3.7 25.3 78 -6.9 19.5
10:05 1017 30.03 846 24.98 -3.7 25.3 78 -7.1 19.3
10:10 1017 30.03 846 24.98 -3.3 26 76 -7.1 19.3
10:15 1017 30.03 846 24.98 -3.3 26.1 76 -6.9 19.6
10:20 1017 30.03 846 24.98 -3.1 26.4 72 -7.5 18.6
10:25 1017 30.03 846 24.98 -2.8 27 70 -7.6 18.4
10:30 1017 30.03 846 24.98 -3.2 26.3 75 -7 19.5
10:35 1017 30.03 846 24.98 -3.9 25 75 -7.7 18.2
10:40 1017 30.03 846 24.98 -3.9 24.9 78 -7.2 19
10:45 1017 30.03 846 24.98 -3.3 26 74 -7.3 18.8
10:50 1017 30.03 846 24.98 -3.1 26.4 73 -7.4 18.8
10:55 1017 30.03 846 24.98 -3.3 26.1 73 -7.5 18.5
11:00 1017 30.03 846 24.98 -2.7 27.2 69 -7.5 18.4
11:05 1017 30.03 846 24.98 -3.2 26.3 73 -7.3 18.9
11:10 1017 30.03 846 24.98 -3.8 25.2 75 -7.5 18.5
11:15 1017 30.03 846 24.98 -3.3 26 73 -7.5 18.5
11:20 1017 30.03 846 24.98 -3.2 26.2 72 -7.6 18.3
11:25 1017 30.03 846 24.98 -3.1 26.5 72 -7.5 18.6
11:30 1017 30.03 846 24.98 -3 26.7 74 -7 19.5
11:35 1017 30.03 846 24.98 -3.2 26.2 74 -7.2 19.1
11:40 1017 30.03 846 24.98 -3 26.7 75 -6.8 19.8
11:45 1017 30.03 846 24.98 -3.1 26.4 72 -7.6 18.4
11:50 1017 30.03 846 24.98 -3.2 26.2 74 -7.2 19
11:55 1017 30.03 846 24.98 -3 26.6 72 -7.4 18.7
12:00 1017 30.03 846 24.98 -2.8 26.9 72 -7.1 19.1
12:05 1017 30.03 846 24.98 -2.7 27.1 72 -7.2 19
12:10 1017 30.03 846 24.98 -2.8 27 73 -6.9 19.6
12:15 1017 30.03 846 24.98 -2.8 26.9 74 -6.9 19.6
12:20 1017 30.03 846 24.98 -2.6 27.4 73 -6.8 19.7
12:25 1016 30 846 24.98 -2.4 27.8 72 -6.8 19.7
12:30 1016 30 846 24.98 -1.6 29 69 -6.6 20.2
12:35 1016 30 846 24.98 -1.4 29.5 68 -6.6 20.1
12:40 1016 30 846 24.98 -1.4 29.6 70 -6.2 20.9
12:45 1016 30 845 24.95 -2.7 27.2 74 -6.7 20
12:50 1016 30 845 24.95 -1.9 28.5 72 -6.4 20.5
12:55 1016 30 845 24.95 -1.4 29.5 67 -6.7 19.9
13:00 1016 30 845 24.95 -1.5 29.2 70 -6.3 20.7
13:05 1016 30 845 24.95 -2.7 27.1 72 -7.1 19.3
13:10 1016 30 845 24.95 -2.6 27.4 75 -6.5 20.3
13:15 1016 30 845 24.95 -1.9 28.5 69 -6.9 19.6
13:20 1016 30 845 24.95 -2.2 28 74 -6.2 20.8
13:25 1016 30 845 24.95 -2.1 28.3 71 -6.7 19.9
13:30 1016 30 845 24.95 -2.3 27.8 73 -6.6 20.1
13:35 1016 30 845 24.95 -2.9 26.8 72 -7.3 18.8
13:40 1016 30 845 24.95 -2.7 27.1 70 -7.5 18.5
13:45 1016 30 845 24.95 -2.3 28 67 -7.6 18.2
13:50 1016 30 845 24.95 -1.6 29.1 66 -7.1 19.3
13:55 1016 30 845 24.95 -1.6 29.2 68 -6.7 19.9
14:00 1016 30 845 24.95 -2.1 28.2 69 -7.1 19.3
14:05 1016 30 845 24.95 -2.2 28 68 -7.4 18.7
14:10 1016 30 845 24.95 -2.4 27.6 72 -6.9 19.6
14:15 1016 30 845 24.95 -2.3 27.9 71 -6.9 19.6
14:20 1016 30 845 24.95 -1.7 28.9 63 -7.8 17.9
14:25 1016 30 845 24.95 -0.9 30.4 61 -7.5 18.5
14:30 1016 30 845 24.95 -0.3 31.5 59 -7.4 18.7
14:35 1016 30 845 24.95 -0.1 31.9 59 -7.1 19.2
14:40 1016 30 845 24.95 0.1 32.1 59 -7 19.5
14:45 1016 30 845 24.95 -0.2 31.7 57 -7.8 18
14:50 1016 30 845 24.95 -0.1 31.9 60 -6.9 19.6
14:55 1016 30 845 24.95 -0.1 31.9 58 -7.3 18.8
15:00 1016 30 845 24.95 -0.5 31.1 58 -7.7 18.2
15:05 1016 30 845 24.95 -0.6 30.8 59 -7.7 18.1
15:10 1016 30 845 24.95 -0 31.9 56 -7.7 18.1
15:15 1016 30 845 24.95 0.1 32.2 54 -8.3 17.1
15:20 1016 30 845 24.95 0.1 32.3 54 -8.2 17.3
15:25 1016 30 845 24.95 0.3 32.5 50 -8.9 16.1
15:30 1016 30 845 24.95 0.2 32.3 53 -8.3 17.1
15:35 1016 30 845 24.95 -0.5 31.1 55 -8.5 16.6
15:40 1016 30 845 24.95 -1 30.2 55 -8.9 16
15:45 1016 30 845 24.95 -1.3 29.6 53 -9.6 14.7
15:50 1016 30 845 24.95 -1.2 29.8 53 -9.6 14.8
15:55 1016 30 845 24.95 -1.1 29.9 55 -9 15.8
16:00 1016 30 845 24.95 -1.4 29.5 58 -8.7 16.4
16:05 1016 30 845 24.95 -1.8 28.7 62 -8.2 17.3
16:10 1016 30 845 24.95 -3.7 25.4 70 -8.3 17
16:15 1016 30 845 24.95 -4.3 24.3 71 -8.7 16.3
16:20 1016 30 845 24.95 -4.3 24.3 72 -8.6 16.4
16:25 1016 30 845 24.95 -3.9 24.9 70 -8.7 16.3
16:30 1016 30 845 24.95 -3.4 26 67 -8.7 16.4
16:35 1016 30 845 24.95 -3.4 25.8 69 -8.3 17
16:40 1016 30 845 24.95 -3.6 25.4 70 -8.4 16.9
16:45 1016 30 845 24.95 -3.9 25 71 -8.3 17
16:50 1016 30 845 24.95 -4.1 24.6 72 -8.4 16.9
16:55 1016 30 845 24.95 -4.4 24.1 72 -8.6 16.4
17:00 1016 30 845 24.95 -4.4 24.1 72 -8.7 16.4
17:05 1016 30 845 24.95 -4.5 23.8 72 -8.8 16.2
17:10 1016 30 845 24.95 -4.5 23.8 73 -8.6 16.5
17:15 1016 30 845 24.95 -4.4 24.1 71 -8.8 16.1
17:20 1016 30 845 24.95 -4.5 24 72 -8.7 16.3
17:25 1016 30 845 24.95 -4.8 23.4 74 -8.8 16.2
17:30 1016 30 845 24.95 -5 23 76 -8.7 16.4
17:35 1016 30 845 24.95 -5 22.9 75 -8.8 16.2
17:40 1016 30 845 24.95 -5.2 22.6 76 -8.8 16.1
17:45 1016 30 845 24.95 -5.3 22.5 76 -8.9 16
17:50 1016 30 845 24.95 -5.3 22.5 77 -8.7 16.3
17:55 1016 30 845 24.95 -5.3 22.5 77 -8.7 16.4
18:00 1016 30 845 24.95 -5.2 22.6 79 -8.4 16.9
18:05 1016 30 845 24.95 -4.9 23.2 78 -8.2 17.2
18:10 1016 30 845 24.95 -4.8 23.4 78 -8.1 17.5
18:15 1016 30 845 24.95 -4.5 23.9 78 -7.9 17.9
18:20 1016 30 845 24.95 -4.4 24.1 80 -7.3 18.9
18:25 1016 30 845 24.95 -4.5 23.8 82 -7.1 19.2
18:30 1016 30 845 24.95 -4.7 23.5 84 -7.1 19.3
18:35 1016 30 845 24.95 -4.9 23.2 84 -7.2 19.1
18:40 1016 30 845 24.95 -4.8 23.4 84 -7.1 19.3
18:45 1016 30 846 24.98 -5.1 22.8 86 -7 19.3
18:50 1016 30 846 24.98 -5.3 22.4 85 -7.4 18.6
18:55 1016 30 846 24.98 -5.6 21.9 83 -8 17.6
19:00 1016 30 846 24.98 -5.9 21.3 85 -8 17.6
19:05 1016 30 846 24.98 -5.9 21.4 85 -8 17.6
19:10 1016 30 846 24.98 -5.7 21.8 83 -8.2 17.2
19:15 1016 30 846 24.98 -5.8 21.5 83 -8.3 17
19:20 1016 30 846 24.98 -6.1 21.1 85 -8.3 17.1
19:25 1017 30.03 846 24.98 -6.1 21 85 -8.3 17.1
19:30 1017 30.03 846 24.98 -6.1 20.9 84 -8.4 16.9
19:35 1017 30.03 846 24.98 -6 21.2 86 -8.1 17.5
19:40 1017 30.03 846 24.98 -5.8 21.6 84 -8 17.5
19:45 1017 30.03 846 24.98 -5.9 21.4 84 -8.2 17.3
19:50 1017 30.03 846 24.98 -5.8 21.6 83 -8.2 17.3
19:55 1017 30.03 846 24.98 -5.8 21.6 84 -8 17.5
20:00 1017 30.03 846 24.98 -5.7 21.7 84 -8 17.5
20:05 1017 30.03 846 24.98 -5.8 21.5 86 -7.8 18
20:10 1017 30.03 846 24.98 -5.9 21.4 88 -7.7 18.2
20:15 1017 30.03 846 24.98 -5.8 21.6 87 -7.6 18.2
20:20 1017 30.03 846 24.98 -6 21.3 89 -7.5 18.5
20:25 1017 30.03 846 24.98 -6 21.2 88 -7.7 18.1
20:30 1017 30.03 846 24.98 -6.1 20.9 87 -8 17.6
20:35 1017 30.03 846 24.98 -6.3 20.7 90 -7.7 18.1
20:40 1017 30.03 846 24.98 -6.1 21.1 86 -8 17.6
20:45 1017 30.03 846 24.98 -6 21.2 87 -7.9 17.8
20:50 1017 30.03 846 24.98 -6 21.2 86 -8 17.6
20:55 1017 30.03 846 24.98 -6 21.2 85 -8.1 17.5
21:00 1017 30.03 846 24.98 -6 21.3 84 -8.2 17.2
21:05 1017 30.03 846 24.98 -5.9 21.4 81 -8.7 16.4
21:10 1017 30.03 846 24.98 -6.1 21.1 81 -8.8 16.2
21:15 1017 30.03 846 24.98 -6.3 20.7 81 -9 15.8
21:20 1017 30.03 846 24.98 -6.3 20.7 81 -9 15.9
21:25 1017 30.03 846 24.98 -6.7 19.9 83 -9.1 15.6
21:30 1017 30.03 846 24.98 -7.2 19 83 -9.6 14.7
21:35 1017 30.03 846 24.98 -7.1 19.2 81 -9.8 14.3
21:40 1017 30.03 846 24.98 -7.4 18.6 82 -9.9 14.1
21:45 1017 30.03 846 24.98 -7.6 18.3 85 -9.8 14.4
21:50 1017 30.03 846 24.98 -7.6 18.4 83 -9.9 14.1
21:55 1017 30.03 846 24.98 -7.5 18.6 83 -9.9 14.1
22:00 1017 30.03 846 24.98 -7.3 18.8 84 -9.6 14.7
22:05 1017 30.03 846 24.98 -7.3 18.9 84 -9.5 14.9
22:10 1017 30.03 846 24.98 -7.2 19 85 -9.4 15.1
22:15 1017 30.03 846 24.98 -7.3 19 85 -9.4 15.1
22:20 1017 30.03 846 24.98 -7.2 19 84 -9.5 14.8
22:25 1017 30.03 846 24.98 -7.3 18.8 84 -9.6 14.7
22:30 1017 30.03 846 24.98 -7.5 18.5 84 -9.7 14.6
22:35 1017 30.03 846 24.98 -7.5 18.6 85 -9.6 14.7
22:40 1017 30.03 846 24.98 -7.3 18.8 84 -9.6 14.6
22:45 1016 30 846 24.98 -7.6 18.3 86 -9.6 14.7
22:50 1016 30 846 24.98 -7.9 17.9 87 -9.7 14.6
22:55 1016 30 846 24.98 -7.8 18 87 -9.6 14.6
23:00 1016 30 846 24.98 -7.7 18.2 87 -9.5 14.9
23:05 1016 30 846 24.98 -7.5 18.5 87 -9.4 15.2
23:10 1016 30 846 24.98 -7.5 18.4 87 -9.4 15.1
23:15 1016 30 846 24.98 -7.7 18.2 88 -9.3 15.2
23:20 1016 30 846 24.98 -7.7 18.2 88 -9.3 15.2
23:25 1016 30 846 24.98 -7.6 18.2 88 -9.3 15.2
23:30 1016 30 846 24.98 -7.5 18.4 86 -9.4 15
23:35 1016 30 846 24.98 -7.7 18.2 84 -9.9 14.1
23:40 1016 30 846 24.98 -8.5 16.7 84 -10.8 12.6
23:45 1016 30 846 24.98 -9 15.9 84 -11.2 11.9
23:50 1016 30 845 24.95 -9.2 15.5 84 -11.4 11.5
23:55 1016 30 846 24.98 -9.4 15 85 -11.5 11.4
24:00 1016 30 846 24.98 -9.5 14.9 86 -11.4 11.5